createdAt,value
2018-11-14T00:00:19.739Z,9.93
2018-11-14T00:02:48.100Z,11.93
2018-11-14T00:05:16.373Z,10.53
2018-11-14T00:07:44.523Z,11.53
2018-11-14T00:10:12.830Z,11.50
2018-11-14T00:12:41.464Z,10.77
2018-11-14T00:15:11.985Z,10.70
2018-11-14T00:17:40.105Z,9.30
2018-11-14T00:20:09.220Z,10.33
2018-11-14T00:22:37.364Z,17.00
2018-11-14T00:25:05.981Z,9.93
2018-11-14T00:27:34.069Z,16.07
2018-11-14T00:30:02.281Z,9.37
2018-11-14T00:32:30.429Z,9.80
2018-11-14T00:34:59.328Z,10.20
2018-11-14T00:37:27.621Z,12.30
2018-11-14T00:39:55.763Z,8.83
2018-11-14T00:42:23.893Z,13.00
2018-11-14T00:44:52.007Z,15.27
2018-11-14T00:47:20.147Z,10.90
2018-11-14T00:49:48.924Z,11.47
2018-11-14T00:52:17.067Z,11.40
2018-11-14T00:54:45.368Z,9.37
2018-11-14T00:57:13.511Z,12.60
2018-11-14T00:59:41.717Z,16.43
2018-11-14T01:02:10.193Z,14.23
2018-11-14T01:04:38.423Z,16.00
2018-11-14T01:07:06.609Z,11.70
2018-11-14T01:09:34.764Z,17.27
2018-11-14T01:12:02.880Z,15.13
2018-11-14T01:14:31.693Z,12.87
2018-11-14T01:16:59.816Z,15.03
2018-11-14T01:19:27.944Z,12.03
2018-11-14T01:21:56.060Z,17.30
2018-11-14T01:24:24.436Z,16.13
2018-11-14T01:26:52.575Z,15.70
2018-11-14T01:29:21.732Z,14.10
2018-11-14T01:31:49.850Z,11.43
2018-11-14T01:34:18.160Z,12.73
2018-11-14T01:36:46.283Z,13.90
2018-11-14T01:39:15.165Z,12.10
2018-11-14T01:41:43.379Z,12.10
2018-11-14T01:44:11.489Z,10.10
2018-11-14T01:46:39.808Z,11.27
2018-11-14T01:49:09.717Z,19.90
2018-11-14T01:51:38.485Z,16.60
2018-11-14T01:54:06.684Z,12.47
2018-11-14T01:56:35.376Z,12.67
2018-11-14T01:59:04.187Z,14.77
2018-11-14T02:01:32.303Z,17.63
2018-11-14T02:04:00.521Z,11.80
2018-11-14T02:06:28.698Z,14.90
2018-11-14T02:08:57.575Z,13.47
2018-11-14T02:11:25.677Z,11.43
2018-11-14T02:13:53.897Z,15.20
2018-11-14T02:16:22.019Z,13.93
2018-11-14T02:18:50.292Z,14.53
2018-11-14T02:21:18.405Z,13.50
2018-11-14T02:23:46.504Z,15.00
2018-11-14T02:26:14.822Z,14.63
2018-11-14T02:28:43.178Z,13.10
2018-11-14T02:31:11.310Z,13.07
2018-11-14T02:33:39.438Z,15.10
2018-11-14T02:36:07.549Z,12.03
2018-11-14T02:38:35.643Z,12.30
2018-11-14T02:41:03.789Z,14.63
2018-11-14T02:43:31.891Z,12.97
2018-11-14T02:46:00.010Z,15.60
2018-11-14T02:48:28.246Z,13.37
2018-11-14T02:51:07.936Z,12.70
2018-11-14T02:53:36.301Z,18.73
2018-11-14T02:56:08.097Z,17.27
2018-11-14T02:58:36.201Z,14.77
2018-11-14T03:01:04.608Z,20.43
2018-11-14T03:03:32.729Z,24.70
2018-11-14T03:06:00.864Z,17.43
2018-11-14T03:08:29.006Z,13.10
2018-11-14T03:10:57.205Z,20.70
2018-11-14T03:13:25.372Z,12.87
2018-11-14T03:15:53.701Z,18.60
2018-11-14T03:18:21.851Z,16.33
2018-11-14T03:20:49.971Z,16.20
2018-11-14T03:23:18.364Z,15.03
2018-11-14T03:25:46.467Z,18.33
2018-11-14T03:28:14.683Z,15.73
2018-11-14T03:30:42.884Z,17.63
2018-11-14T03:33:10.992Z,13.90
2018-11-14T03:35:45.053Z,15.83
2018-11-14T03:38:13.324Z,17.87
2018-11-14T03:40:41.461Z,17.83
2018-11-14T03:43:09.644Z,24.27
2018-11-14T03:45:37.760Z,12.70
2018-11-14T03:48:05.920Z,20.53
2018-11-14T03:50:34.056Z,17.77
2018-11-14T03:53:02.797Z,15.60
2018-11-14T03:55:30.900Z,20.43
2018-11-14T03:57:59.032Z,17.17
2018-11-14T04:00:27.145Z,18.60
2018-11-14T04:02:56.200Z,17.73
2018-11-14T04:05:24.382Z,21.90
2018-11-14T04:07:52.519Z,16.80
2018-11-14T04:10:20.657Z,15.93
2018-11-14T04:12:48.788Z,19.87
2018-11-14T04:15:16.915Z,15.90
2018-11-14T04:17:45.100Z,12.57
2018-11-14T04:20:14.384Z,20.80
2018-11-14T04:22:42.613Z,19.40
2018-11-14T04:25:12.871Z,14.10
2018-11-14T04:27:41.737Z,17.47
2018-11-14T04:30:13.120Z,16.80
2018-11-14T04:32:41.675Z,17.93
2018-11-14T04:35:12.216Z,17.40
2018-11-14T04:37:41.148Z,17.53
2018-11-14T04:40:11.399Z,15.60
2018-11-14T04:42:39.613Z,17.73
2018-11-14T04:45:09.828Z,16.00
2018-11-14T04:47:37.981Z,15.53
2018-11-14T04:50:14.854Z,15.40
2018-11-14T04:52:43.461Z,17.47
2018-11-14T04:55:13.387Z,15.37
2018-11-14T04:57:42.264Z,15.20
2018-11-14T05:00:11.671Z,21.83
2018-11-14T05:02:40.630Z,17.90
2018-11-14T05:05:10.688Z,15.20
2018-11-14T05:07:39.092Z,14.87
2018-11-14T05:10:09.126Z,14.83
2018-11-14T05:12:37.327Z,19.03
2018-11-14T05:15:05.814Z,19.03
2018-11-14T05:17:34.121Z,16.60
2018-11-14T05:20:02.343Z,18.93
2018-11-14T05:22:30.505Z,14.53
2018-11-14T05:24:59.234Z,16.60
2018-11-14T05:27:27.527Z,18.77
2018-11-14T05:29:55.652Z,16.60
2018-11-14T05:32:23.776Z,19.03
2018-11-14T05:34:51.876Z,13.30
2018-11-14T05:37:20.020Z,17.37
2018-11-14T05:39:48.859Z,17.70
2018-11-14T05:42:16.928Z,23.27
2018-11-14T05:44:45.107Z,17.90
2018-11-14T05:47:13.338Z,18.57
2018-11-14T05:49:41.456Z,18.30
2018-11-14T05:52:09.672Z,19.77
2018-11-14T05:54:39.077Z,18.23
2018-11-14T05:57:08.064Z,19.20
2018-11-14T05:59:36.232Z,19.30
2018-11-14T06:02:04.468Z,15.80
2018-11-14T06:04:32.635Z,26.63
2018-11-14T06:07:00.733Z,15.03
2018-11-14T06:09:28.840Z,16.60
2018-11-14T06:11:57.049Z,13.77
2018-11-14T06:14:25.152Z,19.53
2018-11-14T06:16:53.295Z,22.93
2018-11-14T06:19:21.437Z,16.27
2018-11-14T06:21:49.773Z,20.23
2018-11-14T06:24:17.831Z,17.13
2018-11-14T06:26:46.057Z,14.17
2018-11-14T06:29:14.244Z,13.60
2018-11-14T06:31:42.379Z,16.70
2018-11-14T06:34:10.550Z,11.87
2018-11-14T06:36:38.708Z,18.77
2018-11-14T06:39:09.079Z,13.00
2018-11-14T06:41:37.362Z,16.10
2018-11-14T06:44:06.432Z,17.33
2018-11-14T06:46:34.563Z,20.10
2018-11-14T06:49:03.256Z,11.80
2018-11-14T06:51:31.427Z,18.50
2018-11-14T06:54:00.192Z,16.97
2018-11-14T06:56:28.321Z,21.83
2018-11-14T06:58:56.563Z,17.83
2018-11-14T07:01:24.725Z,17.20
2018-11-14T07:03:52.997Z,16.33
2018-11-14T07:06:21.129Z,19.20
2018-11-14T07:08:49.715Z,17.13
2018-11-14T07:11:17.799Z,15.50
2018-11-14T07:13:46.069Z,20.30
2018-11-14T07:16:14.609Z,16.27
2018-11-14T07:18:42.788Z,15.70
2018-11-14T07:21:10.905Z,25.03
2018-11-14T07:23:39.561Z,20.17
2018-11-14T07:26:08.095Z,18.70
2018-11-14T07:28:36.213Z,19.60
2018-11-14T07:31:05.032Z,20.57
2018-11-14T07:33:33.163Z,18.80
2018-11-14T07:36:01.888Z,15.40
2018-11-14T07:38:33.484Z,13.93
2018-11-14T07:41:03.444Z,15.80
2018-11-14T07:43:32.016Z,11.40
2018-11-14T07:46:00.100Z,11.87
2018-11-14T07:48:28.257Z,12.10
2018-11-14T07:50:56.384Z,14.00
2018-11-14T07:53:24.524Z,14.10
2018-11-14T07:55:52.711Z,10.60
2018-11-14T07:58:20.824Z,14.33
2018-11-14T08:00:49.009Z,15.27
2018-11-14T08:03:17.129Z,13.03
2018-11-14T08:05:45.272Z,9.33
2018-11-14T08:08:14.649Z,12.80
2018-11-14T08:10:42.875Z,7.87
2018-11-14T08:13:11.061Z,10.27
2018-11-14T08:15:39.324Z,11.60
2018-11-14T08:18:07.539Z,11.00
2018-11-14T08:20:35.703Z,12.87
2018-11-14T08:23:04.732Z,8.97
2018-11-14T08:25:32.846Z,8.47
2018-11-14T08:28:01.012Z,7.93
2018-11-14T08:30:29.190Z,13.10
2018-11-14T08:32:57.411Z,10.10
2018-11-14T08:35:25.577Z,11.23
2018-11-14T08:37:53.762Z,9.83
2018-11-14T08:40:21.900Z,9.17
2018-11-14T08:42:50.641Z,9.90
2018-11-14T08:45:19.137Z,9.97
2018-11-14T08:47:47.251Z,11.17
2018-11-14T08:50:16.303Z,6.83
2018-11-14T08:52:44.891Z,10.40
2018-11-14T08:55:13.789Z,9.40
2018-11-14T08:57:43.306Z,6.40
2018-11-14T09:00:13.924Z,7.80
2018-11-14T09:02:43.312Z,7.50
2018-11-14T09:05:11.529Z,6.47
2018-11-14T09:07:39.753Z,10.60
2018-11-14T09:10:12.579Z,10.27
2018-11-14T09:12:41.293Z,7.23
2018-11-14T09:15:11.490Z,8.57
2018-11-14T09:17:39.611Z,9.27
2018-11-14T09:20:09.798Z,5.67
2018-11-14T09:22:38.133Z,7.50
2018-11-14T09:25:09.321Z,11.53
2018-11-14T09:27:37.491Z,8.77
2018-11-14T09:30:09.689Z,8.30
2018-11-14T09:32:37.790Z,6.33
2018-11-14T09:35:06.798Z,6.10
2018-11-14T09:37:35.746Z,6.13
2018-11-14T09:40:04.768Z,5.40
2018-11-14T09:42:33.440Z,8.20
2018-11-14T09:45:01.553Z,6.97
2018-11-14T09:47:29.659Z,9.87
2018-11-14T09:49:57.818Z,6.50
2018-11-14T09:52:26.029Z,5.57
2018-11-14T09:54:54.168Z,5.33
2018-11-14T09:57:22.808Z,5.83
2018-11-14T09:59:51.090Z,9.83
2018-11-14T10:02:19.224Z,11.70
2018-11-14T10:04:47.420Z,5.50
2018-11-14T10:07:15.604Z,5.70
2018-11-14T10:09:43.972Z,8.50
2018-11-14T10:12:12.137Z,5.80
2018-11-14T10:14:40.340Z,6.37
2018-11-14T10:17:08.529Z,4.20
2018-11-14T10:19:37.270Z,8.13
2018-11-14T10:22:05.557Z,4.77
2018-11-14T10:24:34.124Z,4.17
2018-11-14T10:27:02.324Z,5.13
2018-11-14T10:29:30.436Z,7.00
2018-11-14T10:31:58.581Z,9.40
2018-11-14T10:34:26.780Z,4.30
2018-11-14T10:36:54.938Z,3.90
2018-11-14T10:39:23.146Z,3.80
2018-11-14T10:41:51.289Z,5.27
2018-11-14T10:44:19.437Z,6.10
2018-11-14T10:46:47.603Z,6.60
2018-11-14T10:49:15.801Z,4.73
2018-11-14T10:51:44.595Z,7.63
2018-11-14T10:54:12.713Z,6.40
2018-11-14T10:56:41.515Z,8.70
2018-11-14T10:59:09.629Z,9.87
2018-11-14T11:01:43.263Z,7.20
2018-11-14T11:04:17.282Z,5.20
2018-11-14T11:06:50.883Z,4.40
2018-11-14T11:09:25.537Z,7.20
2018-11-14T11:11:59.079Z,4.73
2018-11-14T11:14:36.183Z,6.00
2018-11-14T11:17:10.064Z,5.33
2018-11-14T11:19:38.371Z,3.93
2018-11-14T11:22:06.552Z,5.57
2018-11-14T11:24:34.687Z,7.50
2018-11-14T11:27:03.027Z,5.53
2018-11-14T11:29:31.208Z,6.43
2018-11-14T11:31:59.491Z,7.10
2018-11-14T11:34:27.589Z,5.87
2018-11-14T11:36:55.749Z,7.50
2018-11-14T11:39:23.905Z,9.53
2018-11-14T11:41:52.553Z,8.60
2018-11-14T11:44:20.820Z,9.97
2018-11-14T11:46:48.864Z,5.67
2018-11-14T11:49:17.016Z,4.97
2018-11-14T11:51:45.167Z,5.57
2018-11-14T11:54:13.844Z,6.53
2018-11-14T11:56:42.924Z,6.60
2018-11-14T11:59:11.032Z,5.10
2018-11-14T12:01:39.935Z,5.70
2018-11-14T12:04:08.063Z,4.60
2018-11-14T12:06:36.165Z,6.10
2018-11-14T12:09:06.864Z,9.00
2018-11-14T12:11:35.014Z,6.30
2018-11-14T12:14:03.148Z,4.27
2018-11-14T12:16:31.374Z,3.17
2018-11-14T12:18:59.574Z,4.77
2018-11-14T12:21:27.678Z,8.20
2018-11-14T12:23:55.864Z,5.57
2018-11-14T12:26:23.980Z,5.83
2018-11-14T12:28:52.108Z,4.60
2018-11-14T12:31:20.288Z,6.57
2018-11-14T12:33:49.314Z,8.73
2018-11-14T12:36:17.448Z,7.60
2018-11-14T12:38:46.016Z,4.87
2018-11-14T12:41:14.555Z,4.80
2018-11-14T12:43:42.817Z,7.13
2018-11-14T12:46:11.046Z,7.13
2018-11-14T12:48:39.194Z,6.20
2018-11-14T12:51:07.444Z,5.47
2018-11-14T12:53:36.256Z,4.23
2018-11-14T12:56:05.088Z,6.17
2018-11-14T12:58:33.772Z,8.60
2018-11-14T13:01:02.078Z,5.90
2018-11-14T13:03:30.849Z,4.90
2018-11-14T13:05:59.675Z,4.97
2018-11-14T13:08:27.809Z,8.53
2018-11-14T13:10:55.960Z,5.60
2018-11-14T13:13:28.344Z,5.97
2018-11-14T13:15:56.595Z,6.93
2018-11-14T13:18:24.707Z,5.60
2018-11-14T13:20:52.845Z,4.83
2018-11-14T13:23:20.974Z,7.57
2018-11-14T13:25:49.529Z,5.50
2018-11-14T13:28:17.715Z,8.70
2018-11-14T13:30:46.481Z,5.40
2018-11-14T13:33:14.588Z,6.70
2018-11-14T13:35:44.684Z,4.73
2018-11-14T13:38:12.916Z,6.67
2018-11-14T13:40:41.077Z,4.50
2018-11-14T13:43:09.388Z,3.77
2018-11-14T13:45:37.468Z,5.37
2018-11-14T13:48:05.852Z,6.70
2018-11-14T13:50:34.126Z,8.40
2018-11-14T13:53:02.182Z,4.30
2018-11-14T13:55:30.304Z,5.50
2018-11-14T13:57:58.505Z,6.13
2018-11-14T14:00:26.637Z,4.83
2018-11-14T14:02:54.891Z,6.60
2018-11-14T14:05:24.848Z,8.73
2018-11-14T14:07:52.974Z,4.93
2018-11-14T14:10:21.121Z,6.10
2018-11-14T14:12:51.752Z,7.43
2018-11-14T14:15:21.315Z,5.10
2018-11-14T14:17:49.976Z,7.00
2018-11-14T14:20:18.707Z,4.30
2018-11-14T14:22:46.919Z,6.63
2018-11-14T14:25:16.580Z,3.90
2018-11-14T14:27:44.733Z,3.40
2018-11-14T14:30:17.232Z,4.90
2018-11-14T14:32:46.427Z,5.17
2018-11-14T14:35:15.484Z,5.20
2018-11-14T14:37:43.677Z,6.00
2018-11-14T14:40:17.176Z,6.37
2018-11-14T14:42:46.288Z,3.60
2018-11-14T14:45:15.901Z,5.47
2018-11-14T14:47:44.056Z,5.27
2018-11-14T14:50:14.980Z,6.63
2018-11-14T14:52:43.588Z,5.50
2018-11-14T14:55:14.918Z,6.50
2018-11-14T14:57:43.859Z,4.17
2018-11-14T15:00:13.968Z,4.93
2018-11-14T15:02:42.412Z,4.60
2018-11-14T15:05:11.533Z,6.70
2018-11-14T15:07:40.012Z,7.17
2018-11-14T15:10:12.301Z,6.13
2018-11-14T15:12:40.608Z,10.23
2018-11-14T15:15:08.763Z,6.37
2018-11-14T15:17:37.009Z,6.57
2018-11-14T15:20:09.222Z,8.33
2018-11-14T15:22:37.557Z,6.37
2018-11-14T15:25:07.328Z,5.97
2018-11-14T15:27:35.528Z,11.47
2018-11-14T15:30:04.337Z,6.43
2018-11-14T15:32:32.440Z,6.27
2018-11-14T15:35:01.588Z,5.20
2018-11-14T15:37:29.697Z,6.10
2018-11-14T15:39:58.461Z,6.60
2018-11-14T15:42:27.265Z,6.97
2018-11-14T15:44:55.374Z,23.93
2018-11-14T15:47:23.564Z,7.17
2018-11-14T15:49:51.705Z,7.63
2018-11-14T15:52:20.927Z,7.23
2018-11-14T15:54:49.103Z,10.50
2018-11-14T15:57:17.304Z,18.97
2018-11-14T15:59:45.425Z,25.63
2018-11-14T16:02:13.641Z,25.97
2018-11-14T16:04:41.754Z,16.40
2018-11-14T16:07:09.876Z,17.93
2018-11-14T16:09:38.009Z,16.60
2018-11-14T16:12:07.008Z,13.13
2018-11-14T16:14:35.125Z,19.43
2018-11-14T16:17:03.545Z,9.20
2018-11-14T16:19:31.651Z,8.27
2018-11-14T16:21:59.755Z,10.77
2018-11-14T16:24:27.921Z,9.63
2018-11-14T16:26:56.142Z,8.83
2018-11-14T16:29:24.262Z,19.17
2018-11-14T16:31:52.512Z,14.20
2018-11-14T16:34:20.624Z,16.10
2018-11-14T16:36:49.642Z,7.87
2018-11-14T16:39:17.765Z,9.77
2018-11-14T16:41:45.959Z,6.20
2018-11-14T16:44:14.151Z,6.97
2018-11-14T16:46:42.864Z,8.47
2018-11-14T16:49:10.996Z,7.47
2018-11-14T16:51:39.212Z,20.80
2018-11-14T16:54:07.370Z,11.77
2018-11-14T16:56:35.501Z,13.73
2018-11-14T16:59:03.680Z,12.30
2018-11-14T17:01:31.828Z,10.70
2018-11-14T17:04:00.972Z,9.07
2018-11-14T17:06:29.663Z,9.10
2018-11-14T17:08:57.877Z,9.40
2018-11-14T17:11:25.977Z,12.10
2018-11-14T17:13:54.228Z,12.80
2018-11-14T17:16:22.494Z,13.67
2018-11-14T17:18:51.670Z,11.83
2018-11-14T17:21:19.795Z,11.73
2018-11-14T17:23:47.970Z,12.20
2018-11-14T17:26:16.188Z,12.50
2018-11-14T17:28:44.303Z,14.67
2018-11-14T17:31:12.774Z,11.80
2018-11-14T17:33:41.597Z,13.80
2018-11-14T17:36:09.899Z,12.57
2018-11-14T17:38:37.958Z,14.10
2018-11-14T17:41:06.639Z,18.63
2018-11-14T17:43:34.961Z,15.43
2018-11-14T17:46:04.238Z,14.57
2018-11-14T17:48:32.499Z,14.17
2018-11-14T17:51:00.639Z,13.53
2018-11-14T17:53:29.432Z,15.03
2018-11-14T17:55:57.573Z,14.37
2018-11-14T17:58:25.700Z,13.90
2018-11-14T18:00:54.249Z,14.17
2018-11-14T18:03:22.421Z,13.87
2018-11-14T18:05:50.544Z,15.50
2018-11-14T18:08:18.828Z,14.57
2018-11-14T18:10:47.000Z,14.87
2018-11-14T18:13:15.136Z,14.13
2018-11-14T18:15:43.297Z,15.40
2018-11-14T18:18:11.500Z,15.93
2018-11-14T18:20:39.640Z,15.43
2018-11-14T18:23:07.945Z,15.77
2018-11-14T18:25:36.592Z,16.43
2018-11-14T18:28:04.989Z,15.70
2018-11-14T18:30:33.140Z,14.57
2018-11-14T18:33:02.841Z,16.07
2018-11-14T18:35:31.303Z,15.60
2018-11-14T18:38:00.281Z,16.00
2018-11-14T18:40:30.604Z,16.80
2018-11-14T18:42:59.428Z,17.17
2018-11-14T18:45:28.810Z,13.97
2018-11-14T18:47:57.677Z,12.30
2018-11-14T18:50:26.369Z,12.60
2018-11-14T18:52:54.500Z,13.47
2018-11-14T18:55:24.065Z,14.60
2018-11-14T18:57:52.453Z,15.77
2018-11-14T19:00:23.453Z,14.67
2018-11-14T19:02:51.635Z,16.90
2018-11-14T19:05:20.244Z,13.20
2018-11-14T19:07:48.401Z,16.40
2018-11-14T19:10:18.113Z,14.47
2018-11-14T19:12:46.963Z,15.87
2018-11-14T19:15:16.801Z,15.80
2018-11-14T19:17:44.940Z,16.67
2018-11-14T19:20:14.789Z,17.70
2018-11-14T19:22:43.436Z,18.77
2018-11-14T19:25:14.741Z,34.87
2018-11-14T19:27:43.930Z,17.37
2018-11-14T19:30:14.140Z,15.10
2018-11-14T19:32:43.260Z,14.90
2018-11-14T19:35:12.190Z,11.10
2018-11-14T19:37:41.746Z,19.47
2018-11-14T19:40:12.667Z,27.27
2018-11-14T19:42:41.048Z,19.57
2018-11-14T19:45:11.824Z,52.60
2018-11-14T19:47:40.382Z,310.60
2018-11-14T19:50:10.318Z,282.57
2018-11-14T19:52:38.600Z,31.20
2018-11-14T19:55:08.016Z,65.43
2018-11-14T19:57:36.753Z,30.57
2018-11-14T20:00:08.460Z,18.57
2018-11-14T20:02:36.624Z,19.50
2018-11-14T20:05:06.725Z,17.40
2018-11-14T20:07:35.492Z,12.13
2018-11-14T20:10:04.662Z,13.10
2018-11-14T20:12:32.812Z,11.87
2018-11-14T20:15:00.964Z,12.63
2018-11-14T20:17:29.129Z,13.80
2018-11-14T20:19:57.257Z,15.50
2018-11-14T20:22:25.529Z,16.70
2018-11-14T20:24:53.704Z,15.60
2018-11-14T20:27:21.850Z,13.17
2018-11-14T20:29:50.055Z,12.93
2018-11-14T20:32:18.209Z,12.57
2018-11-14T20:34:46.441Z,23.60
2018-11-14T20:37:14.675Z,8.20
2018-11-14T20:39:42.807Z,8.77
2018-11-14T20:42:10.994Z,7.30
2018-11-14T20:44:39.143Z,10.10
2018-11-14T20:47:07.306Z,9.70
2018-11-14T20:49:35.596Z,7.60
2018-11-14T20:52:03.764Z,7.63
2018-11-14T20:54:31.919Z,7.63
2018-11-14T20:57:00.344Z,9.20
2018-11-14T20:59:28.592Z,7.00
2018-11-14T21:01:56.781Z,6.33
2018-11-14T21:04:25.177Z,6.63
2018-11-14T21:06:53.985Z,5.90
2018-11-14T21:09:22.154Z,7.50
2018-11-14T21:11:50.301Z,5.87
2018-11-14T21:14:18.461Z,7.03
2018-11-14T21:16:46.603Z,7.20
2018-11-14T21:19:14.821Z,10.47
2018-11-14T21:21:43.495Z,7.03
2018-11-14T21:24:12.877Z,7.07
2018-11-14T21:26:41.065Z,8.53
2018-11-14T21:29:09.282Z,7.97
2018-11-14T21:31:37.406Z,11.20
2018-11-14T21:34:06.217Z,6.27
2018-11-14T21:36:34.324Z,7.23
2018-11-14T21:39:02.501Z,7.70
2018-11-14T21:41:30.610Z,8.17
2018-11-14T21:43:58.853Z,7.20
2018-11-14T21:46:27.077Z,10.00
2018-11-14T21:48:55.254Z,5.23
2018-11-14T21:51:23.351Z,6.07
2018-11-14T21:53:51.517Z,9.73
2018-11-14T21:56:19.633Z,6.47
2018-11-14T21:58:47.826Z,5.80
2018-11-14T22:01:16.012Z,6.37
2018-11-14T22:03:45.114Z,7.40
2018-11-14T22:06:13.295Z,7.77
2018-11-14T22:08:41.428Z,5.97
2018-11-14T22:11:09.544Z,6.37
2018-11-14T22:13:38.647Z,6.20
2018-11-14T22:16:06.858Z,7.13
2018-11-14T22:18:35.000Z,5.23
2018-11-14T22:21:03.204Z,6.27
2018-11-14T22:23:31.985Z,7.83
2018-11-14T22:26:00.115Z,6.73
2018-11-14T22:28:28.254Z,7.47
2018-11-14T22:30:56.372Z,6.17
2018-11-14T22:33:24.654Z,5.50
2018-11-14T22:38:48.955Z,7.00
2018-11-14T22:41:17.084Z,6.40
2018-11-14T22:43:45.195Z,8.13
2018-11-14T22:46:13.301Z,10.30
2018-11-14T22:48:41.411Z,8.50
2018-11-14T22:51:09.517Z,6.87
2018-11-14T22:53:37.623Z,9.90
2018-11-14T22:56:06.146Z,7.67
2018-11-14T22:58:34.261Z,10.37
2018-11-14T23:01:02.380Z,6.27
2018-11-14T23:03:30.475Z,8.30
2018-11-14T23:05:58.593Z,7.73
2018-11-14T23:08:26.695Z,7.00
2018-11-14T23:10:54.817Z,8.80
2018-11-14T23:13:22.911Z,8.97
2018-11-14T23:15:51.032Z,9.53
2018-11-14T23:18:19.109Z,7.03
2018-11-14T23:20:47.222Z,6.17
2018-11-14T23:23:15.388Z,10.07
2018-11-14T23:25:43.436Z,9.37
2018-11-14T23:28:11.530Z,10.03
2018-11-14T23:30:39.626Z,5.60
2018-11-14T23:33:07.729Z,6.50
2018-11-14T23:35:35.820Z,6.57
2018-11-14T23:38:05.076Z,7.27
2018-11-14T23:40:33.172Z,8.10
2018-11-14T23:43:01.388Z,7.63
2018-11-14T23:45:30.103Z,7.20
2018-11-14T23:47:58.265Z,4.60
2018-11-14T23:50:27.583Z,4.03
2018-11-14T23:52:56.671Z,5.10
2018-11-14T23:55:25.581Z,6.63
2018-11-14T23:57:53.681Z,4.83
